createdAt,value
2019-03-22T00:00:20.399Z,18.90
2019-03-22T00:02:51.403Z,18.62
2019-03-22T00:05:20.780Z,17.62
2019-03-22T00:07:50.246Z,19.85
2019-03-22T00:10:19.631Z,25.00
2019-03-22T00:12:49.020Z,20.32
2019-03-22T00:15:18.417Z,25.48
2019-03-22T00:17:47.867Z,23.77
2019-03-22T00:20:17.322Z,22.17
2019-03-22T00:22:46.711Z,21.65
2019-03-22T00:25:16.094Z,21.35
2019-03-22T00:27:46.462Z,25.85
2019-03-22T00:30:15.906Z,17.87
2019-03-22T00:32:45.292Z,24.10
2019-03-22T00:35:14.735Z,20.75
2019-03-22T00:37:45.191Z,16.60
2019-03-22T00:40:14.863Z,22.13
2019-03-22T00:42:44.195Z,24.07
2019-03-22T00:45:13.938Z,24.20
2019-03-22T00:47:43.317Z,15.83
2019-03-22T00:50:13.857Z,17.92
2019-03-22T00:52:43.237Z,16.37
2019-03-22T00:55:13.164Z,19.40
2019-03-22T00:57:42.540Z,23.50
2019-03-22T01:00:15.974Z,17.57
2019-03-22T01:02:45.349Z,17.87
2019-03-22T01:05:15.989Z,17.50
2019-03-22T01:07:45.367Z,22.80
2019-03-22T01:10:15.299Z,24.52
2019-03-22T01:12:44.678Z,20.52
2019-03-22T01:15:14.748Z,18.77
2019-03-22T01:17:44.133Z,22.90
2019-03-22T01:20:14.152Z,23.85
2019-03-22T01:22:43.538Z,21.17
2019-03-22T01:25:13.189Z,21.93
2019-03-22T01:27:42.557Z,23.10
2019-03-22T01:30:14.994Z,20.48
2019-03-22T01:32:44.447Z,20.23
2019-03-22T01:35:14.078Z,20.55
2019-03-22T01:37:43.525Z,21.97
2019-03-22T01:40:14.957Z,19.62
2019-03-22T01:42:44.426Z,23.57
2019-03-22T01:45:15.954Z,23.40
2019-03-22T01:47:45.338Z,17.37
2019-03-22T01:50:16.550Z,24.12
2019-03-22T01:52:46.017Z,30.27
2019-03-22T01:55:15.485Z,25.75
2019-03-22T01:57:53.004Z,23.75
2019-03-22T02:00:18.241Z,28.47
2019-03-22T02:02:47.623Z,26.70
2019-03-22T02:05:17.072Z,24.50
2019-03-22T02:07:46.472Z,20.52
2019-03-22T02:10:15.923Z,22.10
2019-03-22T02:12:45.380Z,22.65
2019-03-22T02:15:22.076Z,25.02
2019-03-22T02:17:51.456Z,27.85
2019-03-22T02:20:20.848Z,25.90
2019-03-22T02:22:50.315Z,26.23
2019-03-22T02:25:20.896Z,24.35
2019-03-22T02:27:50.288Z,24.25
2019-03-22T02:30:19.855Z,31.33
2019-03-22T02:32:49.239Z,21.20
2019-03-22T02:35:28.542Z,28.40
2019-03-22T02:37:49.724Z,22.77
2019-03-22T02:40:19.124Z,21.02
2019-03-22T02:42:48.561Z,24.70
2019-03-22T02:45:18.028Z,23.98
2019-03-22T02:47:47.498Z,26.25
2019-03-22T02:50:19.445Z,31.40
2019-03-22T02:52:48.397Z,21.33
2019-03-22T02:55:18.863Z,32.65
2019-03-22T02:57:48.268Z,29.87
2019-03-22T03:00:18.491Z,24.23
2019-03-22T03:02:47.895Z,22.60
2019-03-22T03:05:18.427Z,22.17
2019-03-22T03:07:47.902Z,28.95
2019-03-22T03:10:17.448Z,27.35
2019-03-22T03:12:47.011Z,26.23
2019-03-22T03:15:18.516Z,24.52
2019-03-22T03:17:47.881Z,28.53
2019-03-22T03:20:18.612Z,25.20
2019-03-22T03:22:49.193Z,22.98
2019-03-22T03:25:19.120Z,27.40
2019-03-22T03:27:48.519Z,26.60
2019-03-22T03:30:22.678Z,27.58
2019-03-22T03:32:52.062Z,24.82
2019-03-22T03:35:21.534Z,26.10
2019-03-22T03:37:50.920Z,26.68
2019-03-22T03:40:21.077Z,26.35
2019-03-22T03:42:50.546Z,26.33
2019-03-22T03:45:38.089Z,27.20
2019-03-22T03:48:13.785Z,25.50
2019-03-22T03:50:43.151Z,26.35
2019-03-22T03:53:12.707Z,27.17
2019-03-22T03:55:42.118Z,26.82
2019-03-22T03:58:11.575Z,25.60
2019-03-22T04:00:40.982Z,23.07
2019-03-22T04:03:10.374Z,30.27
2019-03-22T04:05:39.752Z,31.60
2019-03-22T04:08:09.164Z,28.50
2019-03-22T04:10:38.568Z,28.45
2019-03-22T04:13:07.954Z,33.40
2019-03-22T04:15:37.361Z,28.00
2019-03-22T04:18:06.784Z,29.23
2019-03-22T04:20:36.191Z,24.43
2019-03-22T04:23:05.697Z,28.40
2019-03-22T04:25:35.137Z,29.15
2019-03-22T04:28:04.725Z,27.37
2019-03-22T04:30:34.133Z,25.90
2019-03-22T04:33:06.404Z,30.55
2019-03-22T04:35:34.610Z,27.52
2019-03-22T04:38:04.059Z,30.55
2019-03-22T04:40:33.793Z,25.02
2019-03-22T04:43:03.250Z,24.20
2019-03-22T04:45:34.412Z,25.57
2019-03-22T04:48:18.895Z,34.23
2019-03-22T04:50:50.623Z,31.97
2019-03-22T04:53:23.112Z,27.93
2019-03-22T04:55:55.548Z,28.77
2019-03-22T04:58:27.183Z,29.80
2019-03-22T05:00:59.118Z,34.13
2019-03-22T05:03:29.960Z,29.82
2019-03-22T05:06:02.398Z,23.65
2019-03-22T05:08:34.892Z,30.43
2019-03-22T05:11:05.625Z,27.02
2019-03-22T05:13:37.059Z,27.22
2019-03-22T05:16:13.655Z,25.70
2019-03-22T05:18:46.773Z,24.30
2019-03-22T05:21:17.810Z,24.80
2019-03-22T05:23:48.433Z,25.35
2019-03-22T05:26:20.063Z,20.88
2019-03-22T05:28:52.678Z,27.62
2019-03-22T05:31:32.115Z,35.00
2019-03-22T05:34:01.511Z,26.68
2019-03-22T05:36:30.974Z,27.10
2019-03-22T05:39:00.368Z,32.05
2019-03-22T05:41:29.920Z,24.90
2019-03-22T05:43:59.307Z,30.70
2019-03-22T05:46:28.717Z,43.42
2019-03-22T05:48:58.104Z,39.45
2019-03-22T05:51:27.513Z,30.25
2019-03-22T05:54:00.244Z,30.62
2019-03-22T05:56:29.638Z,31.10
2019-03-22T05:58:59.809Z,31.00
2019-03-22T06:01:29.200Z,30.15
2019-03-22T06:03:59.650Z,43.38
2019-03-22T06:06:29.050Z,45.10
2019-03-22T06:08:58.434Z,51.55
2019-03-22T06:11:28.090Z,34.05
2019-03-22T06:14:03.789Z,40.00
2019-03-22T06:16:33.250Z,47.78
2019-03-22T06:19:02.967Z,44.33
2019-03-22T06:21:32.349Z,42.13
2019-03-22T06:24:01.736Z,47.10
2019-03-22T06:26:31.131Z,48.08
2019-03-22T06:29:01.429Z,51.53
2019-03-22T06:31:30.813Z,47.80
2019-03-22T06:34:00.189Z,50.50
2019-03-22T06:36:29.590Z,44.73
2019-03-22T06:38:58.972Z,47.60
2019-03-22T06:41:28.359Z,52.38
2019-03-22T06:43:57.751Z,58.15
2019-03-22T06:46:27.223Z,56.48
2019-03-22T06:48:56.619Z,45.03
2019-03-22T06:51:25.995Z,36.45
2019-03-22T06:53:56.372Z,37.90
2019-03-22T06:56:25.754Z,40.15
2019-03-22T06:58:55.138Z,31.05
2019-03-22T07:01:24.546Z,31.77
2019-03-22T07:03:55.059Z,32.00
2019-03-22T07:06:24.560Z,36.83
2019-03-22T07:08:55.563Z,57.58
2019-03-22T07:11:24.994Z,39.38
2019-03-22T07:13:54.389Z,23.92
2019-03-22T07:16:23.773Z,27.25
2019-03-22T07:18:54.889Z,35.38
2019-03-22T07:21:27.967Z,34.30
2019-03-22T07:23:57.567Z,31.57
2019-03-22T07:26:26.959Z,24.85
2019-03-22T07:28:56.421Z,31.05
2019-03-22T07:31:25.808Z,23.30
2019-03-22T07:33:55.216Z,24.55
2019-03-22T07:36:24.596Z,34.08
2019-03-22T07:38:53.991Z,36.70
2019-03-22T07:41:23.389Z,40.48
2019-03-22T07:43:52.779Z,30.60
2019-03-22T07:46:22.186Z,39.27
2019-03-22T07:48:51.647Z,28.52
2019-03-22T07:51:21.054Z,26.37
2019-03-22T07:53:50.472Z,32.25
2019-03-22T07:56:19.969Z,27.82
2019-03-22T07:58:49.421Z,28.12
2019-03-22T08:01:18.836Z,23.18
2019-03-22T08:03:48.233Z,24.92
2019-03-22T08:06:17.626Z,29.63
2019-03-22T08:08:47.029Z,28.20
2019-03-22T08:11:17.488Z,29.57
2019-03-22T08:13:46.893Z,24.37
2019-03-22T08:16:16.283Z,28.23
2019-03-22T08:18:45.681Z,24.92
2019-03-22T08:21:15.171Z,23.62
2019-03-22T08:23:44.570Z,29.12
2019-03-22T08:26:14.001Z,25.90
2019-03-22T08:28:43.381Z,24.18
2019-03-22T08:31:12.762Z,21.80
2019-03-22T08:33:42.173Z,25.37
2019-03-22T08:36:11.572Z,26.33
2019-03-22T08:38:40.960Z,33.98
2019-03-22T08:41:10.417Z,33.30
2019-03-22T08:43:40.164Z,23.85
2019-03-22T08:46:09.540Z,22.82
2019-03-22T08:48:39.010Z,21.15
2019-03-22T08:51:08.398Z,26.62
2019-03-22T08:53:37.790Z,30.37
2019-03-22T08:56:07.702Z,19.90
2019-03-22T08:58:37.110Z,16.65
2019-03-22T09:01:06.650Z,23.22
2019-03-22T09:03:36.018Z,21.25
2019-03-22T09:06:07.747Z,18.65
2019-03-22T09:08:36.542Z,16.15
2019-03-22T09:11:05.957Z,17.87
2019-03-22T09:13:35.362Z,15.68
2019-03-22T09:16:04.802Z,23.80
2019-03-22T09:18:34.197Z,24.45
2019-03-22T09:21:03.652Z,19.80
2019-03-22T09:23:33.105Z,22.00
2019-03-22T09:26:02.493Z,21.62
2019-03-22T09:28:31.895Z,22.13
2019-03-22T09:31:10.409Z,24.80
2019-03-22T09:33:32.715Z,20.60
2019-03-22T09:36:02.127Z,19.98
2019-03-22T09:38:31.507Z,21.27
2019-03-22T09:41:00.968Z,30.62
2019-03-22T09:43:30.356Z,22.13
2019-03-22T09:45:59.822Z,24.30
2019-03-22T09:48:29.201Z,21.02
2019-03-22T09:50:58.593Z,22.60
2019-03-22T09:53:30.387Z,21.55
2019-03-22T09:55:59.089Z,29.75
2019-03-22T09:58:28.482Z,18.12
2019-03-22T10:00:57.930Z,21.68
2019-03-22T10:03:27.354Z,28.75
2019-03-22T10:05:56.728Z,27.85
2019-03-22T10:08:27.145Z,28.30
2019-03-22T10:10:56.502Z,61.28
2019-03-22T10:13:25.924Z,23.95
2019-03-22T10:15:55.295Z,21.95
2019-03-22T10:18:24.691Z,18.62
2019-03-22T10:20:54.094Z,18.48
2019-03-22T10:23:23.534Z,16.32
2019-03-22T10:25:52.967Z,16.55
2019-03-22T10:28:22.324Z,18.27
2019-03-22T10:30:51.802Z,20.77
2019-03-22T10:33:22.869Z,20.25
2019-03-22T10:35:52.561Z,17.90
2019-03-22T10:38:30.959Z,15.95
2019-03-22T10:40:53.042Z,18.07
2019-03-22T10:43:22.410Z,22.45
2019-03-22T10:45:51.839Z,23.30
2019-03-22T10:48:21.218Z,30.40
2019-03-22T10:50:50.652Z,18.82
2019-03-22T10:53:20.005Z,17.23
2019-03-22T10:55:50.367Z,18.70
2019-03-22T10:58:21.491Z,20.00
2019-03-22T11:00:51.029Z,22.62
2019-03-22T11:03:20.399Z,26.70
2019-03-22T11:05:49.963Z,16.10
2019-03-22T11:08:19.348Z,23.12
2019-03-22T11:10:48.734Z,24.07
2019-03-22T11:13:18.132Z,17.17
2019-03-22T11:15:48.979Z,20.12
2019-03-22T11:18:18.522Z,15.53
2019-03-22T11:20:47.887Z,16.07
2019-03-22T11:23:17.279Z,12.43
2019-03-22T11:25:46.671Z,16.82
2019-03-22T11:28:16.062Z,16.05
2019-03-22T11:30:45.444Z,13.22
2019-03-22T11:33:14.835Z,18.90
2019-03-22T11:35:44.232Z,18.05
2019-03-22T11:38:13.604Z,17.20
2019-03-22T11:40:43.007Z,15.80
2019-03-22T11:43:12.530Z,15.32
2019-03-22T11:45:41.926Z,12.58
2019-03-22T11:48:12.291Z,14.53
2019-03-22T11:50:41.678Z,14.05
2019-03-22T11:53:11.059Z,19.67
2019-03-22T11:55:40.451Z,15.48
2019-03-22T11:58:09.838Z,12.68
2019-03-22T12:00:39.229Z,12.70
2019-03-22T12:03:08.621Z,11.10
2019-03-22T12:05:40.586Z,15.23
2019-03-22T12:08:09.097Z,17.07
2019-03-22T12:10:38.725Z,15.78
2019-03-22T12:13:08.138Z,12.37
2019-03-22T12:15:37.523Z,13.95
2019-03-22T12:18:06.905Z,13.58
2019-03-22T12:20:36.296Z,18.65
2019-03-22T12:23:05.747Z,18.65
2019-03-22T12:25:35.149Z,16.10
2019-03-22T12:28:04.556Z,15.08
2019-03-22T12:30:33.942Z,14.68
2019-03-22T12:33:03.352Z,11.83
2019-03-22T12:35:32.710Z,12.78
2019-03-22T12:38:02.168Z,15.48
2019-03-22T12:40:31.550Z,11.95
2019-03-22T12:43:01.008Z,15.55
2019-03-22T12:45:32.675Z,10.20
2019-03-22T12:48:02.063Z,13.65
2019-03-22T12:50:31.526Z,10.50
2019-03-22T12:53:01.091Z,12.10
2019-03-22T12:55:30.481Z,14.93
2019-03-22T12:57:59.961Z,19.05
2019-03-22T13:00:29.487Z,13.50
2019-03-22T13:02:58.883Z,12.43
2019-03-22T13:05:28.352Z,17.15
2019-03-22T13:07:57.813Z,14.68
2019-03-22T13:10:28.437Z,13.72
2019-03-22T13:12:57.892Z,16.35
2019-03-22T13:15:27.297Z,14.28
2019-03-22T13:17:56.755Z,15.78
2019-03-22T13:20:26.138Z,10.00
2019-03-22T13:22:55.530Z,13.45
2019-03-22T13:25:24.929Z,12.85
2019-03-22T13:27:54.317Z,11.22
2019-03-22T13:30:35.002Z,10.05
2019-03-22T13:33:05.219Z,13.53
2019-03-22T13:35:34.612Z,12.45
2019-03-22T13:38:04.134Z,13.43
2019-03-22T13:40:33.510Z,12.00
2019-03-22T13:43:02.908Z,13.93
2019-03-22T13:45:32.354Z,12.03
2019-03-22T13:48:01.759Z,16.12
2019-03-22T13:50:31.221Z,16.95
2019-03-22T13:53:00.610Z,14.63
2019-03-22T13:55:29.999Z,14.05
2019-03-22T13:57:59.386Z,11.50
2019-03-22T14:00:28.846Z,11.68
2019-03-22T14:03:03.168Z,10.45
2019-03-22T14:05:29.620Z,10.43
2019-03-22T14:07:59.019Z,16.60
2019-03-22T14:10:32.789Z,13.45
2019-03-22T14:13:03.319Z,16.30
2019-03-22T14:15:32.773Z,12.85
2019-03-22T14:18:02.301Z,8.68
2019-03-22T14:20:31.823Z,11.18
2019-03-22T14:23:01.254Z,14.93
2019-03-22T14:25:30.703Z,13.65
2019-03-22T14:28:00.097Z,13.55
2019-03-22T14:30:29.489Z,12.55
2019-03-22T14:32:58.993Z,11.57
2019-03-22T14:35:28.658Z,7.42
2019-03-22T14:37:58.006Z,10.05
2019-03-22T14:40:27.392Z,9.90
2019-03-22T14:42:56.880Z,11.85
2019-03-22T14:45:26.344Z,14.63
2019-03-22T14:47:55.717Z,12.50
2019-03-22T14:50:25.112Z,12.53
2019-03-22T14:52:54.508Z,12.28
2019-03-22T14:55:23.918Z,8.53
2019-03-22T14:57:53.300Z,16.85
2019-03-22T15:00:22.699Z,12.68
2019-03-22T15:02:52.078Z,9.13
2019-03-22T15:05:22.332Z,12.40
2019-03-22T15:07:51.718Z,8.95
2019-03-22T15:10:21.097Z,15.40
2019-03-22T15:12:50.759Z,10.53
2019-03-22T15:15:21.802Z,8.13
2019-03-22T15:18:01.609Z,9.93
2019-03-22T15:24:03.140Z,8.28
2019-03-22T15:26:26.467Z,10.08
2019-03-22T15:31:44.956Z,12.63
2019-03-22T15:34:21.977Z,12.00
2019-03-22T15:36:55.688Z,14.03
2019-03-22T15:39:29.921Z,10.65
2019-03-22T15:41:59.648Z,10.65
2019-03-22T15:44:29.036Z,12.85
2019-03-22T15:46:58.492Z,6.28
2019-03-22T15:49:27.869Z,12.15
2019-03-22T15:51:57.283Z,11.60
2019-03-22T15:54:26.736Z,16.70
2019-03-22T15:56:56.407Z,9.63
2019-03-22T15:59:25.857Z,7.40
2019-03-22T16:01:55.297Z,15.23
2019-03-22T16:04:24.696Z,7.97
2019-03-22T16:06:55.043Z,10.95
2019-03-22T16:09:24.415Z,7.40
2019-03-22T16:11:54.094Z,10.43
2019-03-22T16:14:23.467Z,5.95
2019-03-22T16:16:52.847Z,22.00
2019-03-22T16:19:22.235Z,82.50
2019-03-22T16:21:51.634Z,116.65
2019-03-22T16:24:21.089Z,31.35
2019-03-22T16:26:50.495Z,34.40
2019-03-22T16:29:19.887Z,15.48
2019-03-22T16:31:49.311Z,10.53
2019-03-22T16:34:18.655Z,7.80
2019-03-22T16:36:48.033Z,10.98
2019-03-22T16:39:17.437Z,5.45
2019-03-22T16:41:46.846Z,18.77
2019-03-22T16:44:16.746Z,6.62
2019-03-22T16:46:46.382Z,6.28
2019-03-22T16:49:15.786Z,6.97
2019-03-22T16:51:45.176Z,11.22
2019-03-22T16:54:14.558Z,15.25
2019-03-22T16:56:44.888Z,7.70
2019-03-22T16:59:18.525Z,10.80
2019-03-22T17:01:47.915Z,9.98
2019-03-22T17:04:17.294Z,15.50
2019-03-22T17:06:47.056Z,14.85
2019-03-22T17:09:16.449Z,16.15
2019-03-22T17:11:47.207Z,12.10
2019-03-22T17:14:16.594Z,16.77
2019-03-22T17:16:46.107Z,11.20
2019-03-22T17:19:15.518Z,14.80
2019-03-22T17:21:46.356Z,15.43
2019-03-22T17:24:15.752Z,19.12
2019-03-22T17:26:45.154Z,11.93
2019-03-22T17:29:14.585Z,15.28
2019-03-22T17:31:43.976Z,11.55
2019-03-22T17:34:14.435Z,11.73
2019-03-22T17:36:43.950Z,12.70
2019-03-22T17:39:14.356Z,11.75
2019-03-22T17:41:43.746Z,14.43
2019-03-22T17:44:13.140Z,16.25
2019-03-22T17:46:42.519Z,27.73
2019-03-22T17:49:11.903Z,24.07
2019-03-22T17:51:41.312Z,14.85
2019-03-22T17:54:10.685Z,22.93
2019-03-22T17:56:40.069Z,16.00
2019-03-22T17:59:09.535Z,14.63
2019-03-22T18:01:38.986Z,14.20
2019-03-22T18:04:08.375Z,16.23
2019-03-22T18:06:37.758Z,16.50
2019-03-22T18:09:07.215Z,28.98
2019-03-22T18:11:36.687Z,23.27
2019-03-22T18:14:06.153Z,21.70
2019-03-22T18:16:35.538Z,21.48
2019-03-22T18:19:04.936Z,23.55
2019-03-22T18:21:34.327Z,20.05
2019-03-22T18:24:03.772Z,16.65
2019-03-22T18:26:33.154Z,16.82
2019-03-22T18:29:02.537Z,19.98
2019-03-22T18:31:31.993Z,19.82
2019-03-22T18:34:01.379Z,21.55
2019-03-22T18:36:30.768Z,23.30
2019-03-22T18:39:00.149Z,22.85
2019-03-22T18:41:29.532Z,21.68
2019-03-22T18:43:58.912Z,18.87
2019-03-22T18:48:55.653Z,19.52
2019-03-22T18:51:25.027Z,15.80
2019-03-22T18:53:54.404Z,21.48
2019-03-22T18:56:23.791Z,17.55
2019-03-22T18:58:53.161Z,14.83
2019-03-22T19:01:22.553Z,17.37
2019-03-22T19:03:51.930Z,13.25
2019-03-22T19:06:21.913Z,15.63
2019-03-22T19:08:51.376Z,11.90
2019-03-22T19:11:20.846Z,17.75
2019-03-22T19:13:50.214Z,12.82
2019-03-22T19:16:19.600Z,16.07
2019-03-22T19:18:48.982Z,18.20
2019-03-22T19:21:18.367Z,13.40
2019-03-22T19:23:47.753Z,19.62
2019-03-22T19:26:17.140Z,17.20
2019-03-22T19:28:46.577Z,16.75
2019-03-22T19:31:16.105Z,12.82
2019-03-22T19:33:45.499Z,16.37
2019-03-22T19:36:15.842Z,15.68
2019-03-22T19:38:45.238Z,14.78
2019-03-22T19:41:14.609Z,12.10
2019-03-22T19:43:44.009Z,19.75
2019-03-22T19:46:13.382Z,20.37
2019-03-22T19:48:42.776Z,18.27
2019-03-22T19:51:12.154Z,20.00
2019-03-22T19:53:41.537Z,16.50
2019-03-22T19:56:10.916Z,12.55
2019-03-22T19:58:40.288Z,15.48
2019-03-22T20:01:09.766Z,18.75
2019-03-22T20:03:39.136Z,23.12
2019-03-22T20:06:08.523Z,18.73
2019-03-22T20:08:37.897Z,17.32
2019-03-22T20:11:07.290Z,12.45
2019-03-22T20:13:36.675Z,17.12
2019-03-22T20:16:06.145Z,16.35
2019-03-22T20:18:35.611Z,15.10
2019-03-22T20:21:05.051Z,27.22
2019-03-22T20:23:34.446Z,15.85
2019-03-22T20:26:03.958Z,23.52
2019-03-22T20:28:33.419Z,29.92
2019-03-22T20:31:02.817Z,22.07
2019-03-22T20:33:32.214Z,19.52
2019-03-22T20:36:01.594Z,17.95
2019-03-22T20:38:30.974Z,17.17
2019-03-22T20:41:00.361Z,17.30
2019-03-22T20:43:29.822Z,23.83
2019-03-22T20:45:59.219Z,26.25
2019-03-22T20:48:28.609Z,22.62
2019-03-22T20:50:57.993Z,19.12
2019-03-22T20:53:27.366Z,20.32
2019-03-22T20:55:56.753Z,18.75
2019-03-22T20:58:26.133Z,23.10
2019-03-22T21:00:55.520Z,20.23
2019-03-22T21:03:24.913Z,20.02
2019-03-22T21:05:54.320Z,19.80
2019-03-22T21:08:23.754Z,24.50
2019-03-22T21:10:53.138Z,28.25
2019-03-22T21:13:22.535Z,22.80
2019-03-22T21:15:51.922Z,26.42
2019-03-22T21:18:22.305Z,20.65
2019-03-22T21:20:51.702Z,18.82
2019-03-22T21:23:21.095Z,22.75
2019-03-22T21:25:50.494Z,23.35
2019-03-22T21:28:19.891Z,20.77
2019-03-22T21:30:49.281Z,22.77
2019-03-22T21:33:18.671Z,25.35
2019-03-22T21:35:48.062Z,17.48
2019-03-22T21:38:17.456Z,23.42
2019-03-22T21:40:46.873Z,24.00
2019-03-22T21:43:16.277Z,21.10
2019-03-22T21:45:45.685Z,22.55
2019-03-22T21:48:15.070Z,29.92
2019-03-22T21:50:45.417Z,21.33
2019-03-22T21:53:14.808Z,25.45
2019-03-22T21:55:44.188Z,18.80
2019-03-22T21:58:13.568Z,19.95
2019-03-22T22:00:42.950Z,16.80
2019-03-22T22:03:12.334Z,14.80
2019-03-22T22:05:47.874Z,16.60
2019-03-22T22:08:12.938Z,18.00
2019-03-22T22:10:42.318Z,22.60
2019-03-22T22:13:11.768Z,15.48
2019-03-22T22:15:41.155Z,13.78
2019-03-22T22:18:10.534Z,14.95
2019-03-22T22:20:39.920Z,13.95
2019-03-22T22:23:09.372Z,18.10
2019-03-22T22:25:38.756Z,13.88
2019-03-22T22:28:08.126Z,22.22
2019-03-22T22:30:37.817Z,16.87
2019-03-22T22:33:07.193Z,16.42
2019-03-22T22:35:36.574Z,16.00
2019-03-22T22:38:05.970Z,22.90
2019-03-22T22:40:35.348Z,18.20
2019-03-22T22:43:04.803Z,20.35
2019-03-22T22:45:34.179Z,15.93
2019-03-22T22:48:03.577Z,18.70
2019-03-22T22:50:32.956Z,14.65
2019-03-22T22:53:02.341Z,14.73
2019-03-22T22:55:31.735Z,19.10
2019-03-22T22:58:01.114Z,16.85
2019-03-22T23:00:30.573Z,15.40
2019-03-22T23:03:01.364Z,16.02
2019-03-22T23:05:31.039Z,15.30
2019-03-22T23:08:00.427Z,15.63
2019-03-22T23:10:29.806Z,15.63
2019-03-22T23:12:59.189Z,22.07
2019-03-22T23:15:28.574Z,17.67
2019-03-22T23:17:57.941Z,15.85
2019-03-22T23:20:27.327Z,19.73
2019-03-22T23:22:56.729Z,19.90
2019-03-22T23:25:26.111Z,17.37
2019-03-22T23:27:55.496Z,14.00
2019-03-22T23:30:24.950Z,13.30
2019-03-22T23:32:54.389Z,15.75
2019-03-22T23:35:23.851Z,14.90
2019-03-22T23:37:53.239Z,17.62
2019-03-22T23:40:22.688Z,15.55
2019-03-22T23:42:52.134Z,15.28
2019-03-22T23:45:21.529Z,16.23
2019-03-22T23:47:52.899Z,15.05
2019-03-22T23:50:22.164Z,19.05
2019-03-22T23:52:51.544Z,16.62
2019-03-22T23:55:20.995Z,15.43
2019-03-22T23:57:51.625Z,18.12
